createdAt,value
2022-07-30T00:00:33.374Z,14.64
2022-07-30T00:02:59.783Z,14.62
2022-07-30T00:05:26.392Z,14.63
2022-07-30T00:07:52.830Z,14.69
2022-07-30T00:10:20.615Z,14.74
2022-07-30T00:12:48.123Z,14.79
2022-07-30T00:15:14.662Z,14.94
2022-07-30T00:17:41.095Z,14.85
2022-07-30T00:20:08.157Z,14.91
2022-07-30T00:22:37.790Z,14.75
2022-07-30T00:25:04.577Z,14.99
2022-07-30T00:27:34.754Z,14.72
2022-07-30T00:30:02.272Z,14.88
2022-07-30T00:32:28.700Z,14.95
2022-07-30T00:34:55.148Z,14.90
2022-07-30T00:37:21.900Z,14.96
2022-07-30T00:39:48.802Z,15.21
2022-07-30T00:42:15.281Z,15.31
2022-07-30T00:44:41.691Z,15.15
2022-07-30T00:47:08.137Z,15.09
2022-07-30T00:49:34.567Z,15.09
2022-07-30T00:52:00.996Z,14.84
2022-07-30T00:54:27.442Z,15.06
2022-07-30T00:56:53.850Z,14.89
2022-07-30T00:59:20.702Z,14.84
2022-07-30T01:01:47.154Z,15.00
2022-07-30T01:04:13.694Z,14.78
2022-07-30T01:06:40.540Z,14.96
2022-07-30T01:09:07.726Z,14.70
2022-07-30T01:11:37.965Z,14.79
2022-07-30T01:14:06.912Z,14.85
2022-07-30T01:16:34.873Z,15.09
2022-07-30T01:19:26.400Z,14.80
2022-07-30T01:22:07.188Z,14.75
2022-07-30T01:24:39.977Z,14.83
2022-07-30T01:27:08.470Z,14.70
2022-07-30T01:29:36.320Z,14.56
2022-07-30T01:32:06.132Z,14.50
2022-07-30T01:34:36.261Z,14.79
2022-07-30T01:37:05.299Z,14.58
2022-07-30T01:39:32.588Z,14.50
2022-07-30T01:42:02.619Z,14.49
2022-07-30T01:44:29.480Z,14.66
2022-07-30T01:46:56.659Z,14.63
2022-07-30T01:49:25.493Z,14.35
2022-07-30T01:51:54.758Z,14.39
2022-07-30T01:54:24.087Z,14.36
2022-07-30T01:56:51.329Z,14.40
2022-07-30T01:59:20.822Z,14.38
2022-07-30T02:01:48.425Z,14.58
2022-07-30T02:04:15.411Z,14.39
2022-07-30T02:07:24.965Z,14.42
2022-07-30T02:09:59.720Z,14.56
2022-07-30T02:12:30.142Z,14.17
2022-07-30T02:15:00.764Z,14.46
2022-07-30T02:17:39.916Z,13.83
2022-07-30T02:20:13.482Z,14.56
2022-07-30T02:22:46.205Z,14.25
2022-07-30T02:25:18.617Z,14.33
2022-07-30T02:27:50.615Z,14.23
2022-07-30T02:30:17.362Z,14.08
2022-07-30T02:32:45.031Z,14.38
2022-07-30T02:35:19.254Z,14.26
2022-07-30T02:37:48.183Z,14.29
2022-07-30T02:40:16.884Z,14.09
2022-07-30T02:42:47.245Z,14.40
2022-07-30T02:45:17.750Z,14.29
2022-07-30T02:47:48.692Z,14.11
2022-07-30T02:50:19.756Z,14.54
2022-07-30T02:52:47.815Z,14.34
2022-07-30T02:55:16.877Z,14.22
2022-07-30T02:57:44.183Z,14.21
2022-07-30T03:00:11.925Z,13.93
2022-07-30T03:02:39.440Z,14.21
2022-07-30T03:05:08.722Z,14.00
2022-07-30T03:07:36.086Z,13.87
2022-07-30T03:10:03.715Z,13.95
2022-07-30T03:12:32.923Z,13.82
2022-07-30T03:14:59.471Z,13.90
2022-07-30T03:17:28.170Z,13.96
2022-07-30T03:19:55.857Z,13.90
2022-07-30T03:22:25.151Z,14.19
2022-07-30T03:24:54.300Z,14.60
2022-07-30T03:27:22.563Z,14.33
2022-07-30T03:29:52.260Z,15.05
2022-07-30T03:32:19.092Z,15.02
2022-07-30T03:34:54.159Z,15.00
2022-07-30T03:37:21.431Z,15.32
2022-07-30T03:39:48.541Z,15.43
2022-07-30T03:42:15.928Z,15.44
2022-07-30T03:44:45.800Z,15.14
2022-07-30T03:47:13.387Z,15.09
2022-07-30T03:49:40.637Z,15.09
2022-07-30T03:52:07.378Z,15.06
2022-07-30T03:54:35.069Z,14.99
2022-07-30T03:57:03.784Z,14.94
2022-07-30T03:59:30.819Z,15.00
2022-07-30T04:02:07.035Z,14.82
2022-07-30T04:04:34.185Z,14.97
2022-07-30T04:07:00.905Z,14.87
2022-07-30T04:09:30.040Z,14.89
2022-07-30T04:11:56.459Z,15.09
2022-07-30T04:14:22.870Z,14.90
2022-07-30T04:17:07.127Z,15.05
2022-07-30T04:19:46.507Z,15.09
2022-07-30T04:22:16.101Z,14.97
2022-07-30T04:24:44.536Z,14.84
2022-07-30T04:27:11.487Z,14.89
2022-07-30T04:29:38.508Z,14.92
2022-07-30T04:32:07.840Z,15.11
2022-07-30T04:34:34.489Z,15.34
2022-07-30T04:37:01.074Z,15.08
2022-07-30T04:39:27.726Z,15.02
2022-07-30T04:41:54.193Z,15.07
2022-07-30T04:44:20.615Z,15.20
2022-07-30T04:46:47.952Z,15.06
2022-07-30T04:49:17.775Z,15.40
2022-07-30T04:51:46.238Z,15.29
2022-07-30T04:54:15.555Z,15.25
2022-07-30T04:56:53.078Z,15.02
2022-07-30T04:59:21.708Z,15.22
2022-07-30T05:01:50.238Z,15.06
2022-07-30T05:04:18.850Z,15.26
2022-07-30T05:06:46.381Z,15.18
2022-07-30T05:09:16.023Z,15.25
2022-07-30T05:11:42.506Z,15.31
2022-07-30T05:14:08.984Z,15.47
2022-07-30T05:16:35.637Z,15.48
2022-07-30T05:19:02.098Z,15.45
2022-07-30T05:21:34.155Z,15.33
2022-07-30T05:24:00.670Z,15.48
2022-07-30T05:26:27.860Z,15.68
2022-07-30T05:28:56.605Z,15.79
2022-07-30T05:31:24.227Z,15.81
2022-07-30T05:33:51.585Z,15.79
2022-07-30T05:36:19.226Z,15.77
2022-07-30T05:38:45.834Z,16.13
2022-07-30T05:41:31.709Z,15.91
2022-07-30T05:43:58.783Z,15.86
2022-07-30T05:46:25.298Z,16.06
2022-07-30T05:48:51.872Z,15.88
2022-07-30T05:51:20.687Z,15.71
2022-07-30T05:53:47.191Z,15.90
2022-07-30T05:56:13.799Z,16.07
2022-07-30T05:58:40.274Z,15.99
2022-07-30T06:01:06.742Z,16.08
2022-07-30T06:03:34.317Z,16.37
2022-07-30T06:06:03.508Z,16.35
2022-07-30T06:08:29.983Z,16.45
2022-07-30T06:10:56.390Z,16.55
2022-07-30T06:13:22.786Z,16.68
2022-07-30T06:15:49.242Z,16.79
2022-07-30T06:18:15.708Z,16.70
2022-07-30T06:20:46.564Z,17.13
2022-07-30T06:23:16.078Z,16.91
2022-07-30T06:25:42.514Z,16.93
2022-07-30T06:28:27.838Z,17.06
2022-07-30T06:30:55.372Z,16.94
2022-07-30T06:33:21.812Z,16.98
2022-07-30T06:35:48.969Z,17.18
2022-07-30T06:38:15.433Z,17.46
2022-07-30T06:40:41.826Z,17.33
2022-07-30T06:43:08.233Z,17.24
2022-07-30T06:45:34.743Z,17.36
2022-07-30T06:48:04.606Z,17.51
2022-07-30T06:50:31.165Z,17.57
2022-07-30T06:52:57.851Z,17.34
2022-07-30T06:55:25.544Z,17.33
2022-07-30T06:57:52.006Z,17.49
2022-07-30T07:00:18.483Z,17.47
2022-07-30T07:02:46.407Z,17.57
2022-07-30T07:05:14.970Z,17.63
2022-07-30T07:07:44.502Z,17.70
2022-07-30T07:10:18.839Z,17.94
2022-07-30T07:12:45.319Z,18.08
2022-07-30T07:15:11.824Z,18.00
2022-07-30T07:17:40.328Z,18.32
2022-07-30T07:20:07.090Z,18.06
2022-07-30T07:22:33.513Z,18.23
2022-07-30T07:24:59.929Z,17.83
2022-07-30T07:27:26.412Z,17.83
2022-07-30T07:30:05.082Z,17.86
2022-07-30T07:32:33.082Z,17.97
2022-07-30T07:34:59.507Z,18.02
2022-07-30T07:37:25.961Z,18.06
2022-07-30T07:39:52.444Z,18.38
2022-07-30T07:42:19.999Z,18.11
2022-07-30T07:44:47.751Z,18.31
2022-07-30T07:47:14.242Z,18.28
2022-07-30T07:49:40.884Z,18.36
2022-07-30T07:52:07.690Z,18.10
2022-07-30T07:54:34.177Z,18.22
2022-07-30T07:57:04.457Z,18.55
2022-07-30T07:59:40.316Z,18.52
2022-07-30T08:02:09.418Z,18.45
2022-07-30T08:04:38.979Z,18.40
2022-07-30T08:07:05.580Z,18.66
2022-07-30T08:09:40.794Z,18.79
2022-07-30T08:12:12.803Z,18.71
2022-07-30T08:14:40.249Z,18.55
2022-07-30T08:17:07.269Z,18.53
2022-07-30T08:19:34.272Z,18.65
2022-07-30T08:22:00.781Z,18.76
2022-07-30T08:24:27.175Z,19.03
2022-07-30T08:26:53.802Z,18.91
2022-07-30T08:29:22.411Z,18.81
2022-07-30T08:31:48.846Z,18.77
2022-07-30T08:34:15.643Z,19.23
2022-07-30T08:36:42.169Z,19.14
2022-07-30T08:39:10.639Z,18.95
2022-07-30T08:41:37.400Z,18.63
2022-07-30T08:44:12.666Z,19.06
2022-07-30T08:46:46.908Z,19.18
2022-07-30T08:49:14.798Z,19.35
2022-07-30T08:51:41.996Z,19.16
2022-07-30T08:54:09.655Z,19.37
2022-07-30T08:56:36.776Z,19.14
2022-07-30T08:59:03.919Z,19.21
2022-07-30T09:01:30.397Z,19.22
2022-07-30T09:03:57.488Z,19.38
2022-07-30T09:06:24.070Z,19.27
2022-07-30T09:08:50.725Z,19.43
2022-07-30T09:11:17.149Z,19.32
2022-07-30T09:13:44.647Z,19.39
2022-07-30T09:16:25.210Z,19.70
2022-07-30T09:18:54.307Z,19.39
2022-07-30T09:21:29.260Z,19.27
2022-07-30T09:24:02.033Z,19.59
2022-07-30T09:26:35.627Z,19.71
2022-07-30T09:29:18.365Z,19.83
2022-07-30T09:32:02.926Z,19.66
2022-07-30T09:34:35.186Z,20.00
2022-07-30T09:37:23.540Z,19.89
2022-07-30T09:39:58.908Z,19.62
2022-07-30T09:42:28.744Z,19.97
2022-07-30T09:45:12.553Z,20.30
2022-07-30T09:47:42.785Z,19.97
2022-07-30T09:50:18.031Z,19.97
2022-07-30T09:53:09.537Z,20.28
2022-07-30T09:55:41.284Z,20.68
2022-07-30T09:58:12.954Z,20.95
2022-07-30T10:00:58.536Z,21.06
2022-07-30T10:03:34.305Z,21.00
2022-07-30T10:06:08.996Z,21.12
2022-07-30T10:08:39.557Z,21.51
2022-07-30T10:11:09.691Z,21.92
2022-07-30T10:13:36.644Z,22.26
2022-07-30T10:16:03.792Z,21.92
2022-07-30T10:18:33.829Z,22.06
2022-07-30T10:21:01.882Z,22.13
2022-07-30T10:23:32.916Z,22.05
2022-07-30T10:26:10.629Z,22.17
2022-07-30T10:28:39.433Z,21.88
2022-07-30T10:31:46.886Z,22.17
2022-07-30T10:33:53.044Z,22.27
2022-07-30T10:36:21.438Z,22.69
2022-07-30T10:38:53.077Z,23.00
2022-07-30T10:41:48.155Z,22.37
2022-07-30T10:44:39.860Z,22.80
2022-07-30T10:47:18.540Z,23.19
2022-07-30T10:50:04.071Z,22.89
2022-07-30T10:53:01.040Z,22.75
2022-07-30T10:55:36.569Z,22.18
2022-07-30T10:58:06.660Z,21.82
2022-07-30T11:00:38.311Z,21.85
2022-07-30T11:03:16.090Z,22.15
2022-07-30T11:05:45.476Z,21.88
2022-07-30T11:08:35.908Z,22.21
2022-07-30T11:11:19.780Z,22.24
2022-07-30T11:13:58.000Z,22.07
2022-07-30T11:16:48.215Z,22.02
2022-07-30T11:19:56.394Z,21.45
2022-07-30T11:22:25.400Z,21.30
2022-07-30T11:24:51.953Z,21.02
2022-07-30T11:27:38.116Z,21.19
2022-07-30T11:30:17.312Z,21.27
2022-07-30T11:32:45.185Z,21.65
2022-07-30T11:35:34.568Z,21.25
2022-07-30T11:38:08.768Z,21.80
2022-07-30T11:40:39.992Z,21.67
2022-07-30T11:43:35.565Z,22.07
2022-07-30T11:46:29.750Z,22.18
2022-07-30T11:48:59.880Z,21.87
2022-07-30T11:51:26.835Z,21.70
2022-07-30T11:54:04.851Z,21.96
2022-07-30T11:56:32.069Z,21.90
2022-07-30T11:59:06.431Z,21.91
2022-07-30T12:01:34.256Z,21.96
2022-07-30T12:04:04.502Z,22.47
2022-07-30T12:06:32.094Z,22.62
2022-07-30T12:08:59.751Z,22.58
2022-07-30T12:11:38.823Z,23.15
2022-07-30T12:14:06.640Z,23.00
2022-07-30T12:16:34.534Z,23.03
2022-07-30T12:19:10.030Z,23.00
2022-07-30T12:21:36.726Z,22.82
2022-07-30T12:24:07.547Z,22.48
2022-07-30T12:26:35.122Z,22.01
2022-07-30T12:29:05.623Z,22.10
2022-07-30T12:31:33.779Z,22.33
2022-07-30T12:34:23.161Z,22.34
2022-07-30T12:36:49.811Z,22.46
2022-07-30T12:39:22.086Z,22.89
2022-07-30T12:41:50.485Z,23.08
2022-07-30T12:44:38.354Z,22.97
2022-07-30T12:47:07.247Z,23.37
2022-07-30T12:49:36.840Z,23.08
2022-07-30T12:52:09.596Z,23.11
2022-07-30T12:54:39.895Z,22.79
2022-07-30T12:57:06.830Z,23.06
2022-07-30T12:59:35.290Z,23.04
2022-07-30T13:02:03.447Z,23.22
2022-07-30T13:04:31.561Z,23.36
2022-07-30T13:07:11.050Z,23.11
2022-07-30T13:09:40.009Z,23.37
2022-07-30T13:12:07.047Z,23.58
2022-07-30T13:14:33.587Z,23.53
2022-07-30T13:17:00.576Z,23.39
2022-07-30T13:19:28.009Z,23.61
2022-07-30T13:21:54.722Z,24.26
2022-07-30T13:24:21.862Z,23.40
2022-07-30T13:26:50.598Z,23.68
2022-07-30T13:29:24.488Z,24.04
2022-07-30T13:31:52.601Z,24.54
2022-07-30T13:34:20.217Z,24.26
2022-07-30T13:36:49.770Z,24.79
2022-07-30T13:39:16.441Z,24.23
2022-07-30T13:41:43.120Z,24.80
2022-07-30T13:44:09.792Z,24.36
2022-07-30T13:46:40.542Z,24.59
2022-07-30T13:49:07.850Z,24.76
2022-07-30T13:51:34.748Z,24.78
2022-07-30T13:54:10.712Z,24.48
2022-07-30T13:56:40.664Z,24.35
2022-07-30T13:59:07.630Z,23.80
2022-07-30T14:01:34.887Z,23.97
2022-07-30T14:04:01.847Z,24.13
2022-07-30T14:06:28.342Z,23.88
2022-07-30T14:08:54.734Z,23.88
2022-07-30T14:11:21.202Z,23.70
2022-07-30T14:13:47.654Z,23.01
2022-07-30T14:16:42.545Z,23.42
2022-07-30T14:19:00.755Z,23.98
2022-07-30T14:21:27.168Z,24.07
2022-07-30T14:23:59.870Z,24.46
2022-07-30T14:26:30.225Z,24.21
2022-07-30T14:29:03.012Z,24.42
2022-07-30T14:31:29.437Z,24.26
2022-07-30T14:33:55.941Z,24.64
2022-07-30T14:36:22.459Z,24.81
2022-07-30T14:38:56.529Z,24.73
2022-07-30T14:41:29.176Z,24.59
2022-07-30T14:43:55.579Z,24.08
2022-07-30T14:46:23.903Z,24.00
2022-07-30T14:48:50.568Z,23.73
2022-07-30T14:51:26.661Z,23.73
2022-07-30T14:53:54.163Z,23.49
2022-07-30T14:56:29.528Z,23.55
2022-07-30T14:58:56.007Z,22.84
2022-07-30T15:01:22.487Z,22.75
2022-07-30T15:03:48.896Z,22.72
2022-07-30T15:06:15.537Z,22.22
2022-07-30T15:08:43.159Z,22.05
2022-07-30T15:11:10.623Z,22.10
2022-07-30T15:13:49.615Z,22.55
2022-07-30T15:16:16.923Z,22.66
2022-07-30T15:18:43.342Z,22.90
2022-07-30T15:21:09.800Z,22.65
2022-07-30T15:23:37.276Z,22.99
2022-07-30T15:26:04.400Z,22.95
2022-07-30T15:28:30.848Z,23.36
2022-07-30T15:30:58.141Z,23.64
2022-07-30T15:33:24.590Z,23.75
2022-07-30T15:35:51.086Z,23.90
2022-07-30T15:38:17.580Z,24.04
2022-07-30T15:40:43.994Z,24.31
2022-07-30T15:43:10.487Z,23.99
2022-07-30T15:45:37.970Z,24.15
2022-07-30T15:48:27.364Z,24.16
2022-07-30T15:51:02.049Z,25.03
2022-07-30T15:53:30.226Z,25.32
2022-07-30T15:56:00.044Z,24.89
2022-07-30T15:58:26.651Z,25.51
2022-07-30T16:00:53.171Z,25.45
2022-07-30T16:03:19.679Z,24.29
2022-07-30T16:05:51.080Z,23.55
2022-07-30T16:08:19.716Z,24.05
2022-07-30T16:10:46.147Z,23.86
2022-07-30T16:13:12.585Z,24.20
2022-07-30T16:15:39.016Z,23.69
2022-07-30T16:18:06.292Z,23.64
2022-07-30T16:20:32.776Z,24.12
2022-07-30T16:22:59.257Z,23.73
2022-07-30T16:25:26.039Z,23.71
2022-07-30T16:27:52.516Z,23.26
2022-07-30T16:30:18.944Z,23.18
2022-07-30T16:32:45.457Z,23.24
2022-07-30T16:35:13.417Z,23.37
2022-07-30T16:37:40.169Z,23.18
2022-07-30T16:40:06.958Z,23.06
2022-07-30T16:42:33.384Z,23.08
2022-07-30T16:44:59.795Z,22.96
2022-07-30T16:47:26.242Z,22.95
2022-07-30T16:49:52.694Z,22.69
2022-07-30T16:52:19.199Z,22.64
2022-07-30T16:54:45.776Z,22.63
2022-07-30T16:57:12.253Z,22.72
2022-07-30T16:59:38.976Z,22.71
2022-07-30T17:02:10.261Z,22.49
2022-07-30T17:04:36.718Z,22.50
2022-07-30T17:07:03.168Z,22.28
2022-07-30T17:09:36.398Z,21.85
2022-07-30T17:12:05.319Z,22.03
2022-07-30T17:14:33.292Z,22.11
2022-07-30T17:16:59.820Z,21.88
2022-07-30T17:19:26.686Z,21.80
2022-07-30T17:21:53.143Z,21.30
2022-07-30T17:24:19.567Z,21.41
2022-07-30T17:26:46.712Z,21.18
2022-07-30T17:29:15.365Z,21.14
2022-07-30T17:31:45.651Z,21.12
2022-07-30T17:34:14.192Z,20.83
2022-07-30T17:36:51.500Z,20.82
2022-07-30T17:40:19.959Z,20.57
2022-07-30T17:42:06.259Z,20.17
2022-07-30T17:44:33.036Z,19.85
2022-07-30T17:46:59.439Z,19.79
2022-07-30T17:49:25.960Z,19.66
2022-07-30T17:51:52.458Z,19.64
2022-07-30T17:54:18.964Z,19.47
2022-07-30T17:56:45.416Z,19.96
2022-07-30T17:59:13.924Z,19.48
2022-07-30T18:01:40.656Z,19.58
2022-07-30T18:04:07.142Z,19.99
2022-07-30T18:06:33.871Z,20.17
2022-07-30T18:09:00.288Z,19.80
2022-07-30T18:11:26.713Z,19.94
2022-07-30T18:13:53.837Z,19.64
2022-07-30T18:16:20.234Z,19.73
2022-07-30T18:18:46.686Z,19.73
2022-07-30T18:21:13.140Z,19.94
2022-07-30T18:23:39.837Z,19.71
2022-07-30T18:26:06.277Z,19.57
2022-07-30T18:28:33.329Z,19.67
2022-07-30T18:31:05.678Z,19.62
2022-07-30T18:33:32.152Z,19.64
2022-07-30T18:35:58.657Z,19.50
2022-07-30T18:38:25.223Z,19.50
2022-07-30T18:40:59.832Z,19.47
2022-07-30T18:43:30.727Z,19.55
2022-07-30T18:45:58.355Z,19.83
2022-07-30T18:48:25.049Z,19.93
2022-07-30T18:50:52.844Z,20.09
2022-07-30T18:53:22.404Z,20.04
2022-07-30T18:55:48.919Z,20.03
2022-07-30T18:58:15.434Z,20.08
2022-07-30T19:00:43.997Z,20.14
2022-07-30T19:03:16.279Z,20.29
2022-07-30T19:05:45.530Z,20.25
2022-07-30T19:08:12.013Z,19.53
2022-07-30T19:10:39.865Z,19.71
2022-07-30T19:13:06.617Z,19.14
2022-07-30T19:15:33.085Z,19.17
2022-07-30T19:17:59.515Z,19.21
2022-07-30T19:20:26.722Z,19.16
2022-07-30T19:23:07.007Z,19.25
2022-07-30T19:25:34.666Z,19.18
2022-07-30T19:28:02.371Z,19.28
2022-07-30T19:30:29.931Z,19.26
2022-07-30T19:33:03.204Z,19.27
2022-07-30T19:35:30.092Z,18.97
2022-07-30T19:37:56.491Z,19.13
2022-07-30T19:40:23.021Z,19.11
2022-07-30T19:42:56.017Z,19.33
2022-07-30T19:45:25.047Z,19.28
2022-07-30T19:48:12.139Z,19.38
2022-07-30T19:50:38.722Z,19.31
2022-07-30T19:53:05.508Z,18.71
2022-07-30T19:55:35.588Z,18.72
2022-07-30T19:58:03.627Z,18.43
2022-07-30T20:00:31.052Z,17.99
2022-07-30T20:03:02.210Z,18.30
2022-07-30T20:05:30.537Z,18.38
2022-07-30T20:07:57.026Z,17.81
2022-07-30T20:10:23.511Z,17.48
2022-07-30T20:12:50.845Z,17.67
2022-07-30T20:15:17.780Z,17.39
2022-07-30T20:17:46.573Z,17.68
2022-07-30T20:20:13.644Z,18.04
2022-07-30T20:22:40.081Z,17.67
2022-07-30T20:25:08.399Z,17.66
2022-07-30T20:27:36.121Z,17.52
2022-07-30T20:30:05.314Z,17.51
2022-07-30T20:32:31.755Z,17.47
2022-07-30T20:34:58.411Z,17.44
2022-07-30T20:37:27.324Z,17.45
2022-07-30T20:39:54.832Z,17.50
2022-07-30T20:42:23.611Z,17.45
2022-07-30T20:44:53.206Z,17.42
2022-07-30T20:47:38.197Z,17.55
2022-07-30T20:50:10.558Z,17.52
2022-07-30T20:52:40.837Z,17.53
2022-07-30T20:55:16.483Z,17.42
2022-07-30T20:58:00.202Z,17.37
2022-07-30T21:00:31.534Z,17.20
2022-07-30T21:02:57.934Z,17.33
2022-07-30T21:05:35.484Z,17.13
2022-07-30T21:08:02.552Z,17.31
2022-07-30T21:10:28.997Z,17.15
2022-07-30T21:13:02.970Z,17.06
2022-07-30T21:15:33.560Z,16.72
2022-07-30T21:18:01.531Z,16.87
2022-07-30T21:20:30.069Z,17.12
2022-07-30T21:23:03.000Z,16.93
2022-07-30T21:25:32.598Z,16.67
2022-07-30T21:28:02.903Z,16.93
2022-07-30T21:30:30.517Z,16.58
2022-07-30T21:32:57.022Z,16.50
2022-07-30T21:35:23.648Z,16.66
2022-07-30T21:37:51.908Z,16.41
2022-07-30T21:40:19.082Z,16.41
2022-07-30T21:42:51.646Z,16.27
2022-07-30T21:45:19.328Z,16.28
2022-07-30T21:47:47.788Z,16.29
2022-07-30T21:50:16.192Z,16.09
2022-07-30T21:52:44.168Z,16.04
2022-07-30T21:55:13.328Z,15.95
2022-07-30T21:57:57.840Z,15.95
2022-07-30T22:00:44.612Z,16.02
2022-07-30T22:04:01.607Z,15.84
2022-07-30T22:05:58.410Z,15.84
2022-07-30T22:08:26.234Z,15.63
2022-07-30T22:10:56.553Z,15.61
2022-07-30T22:13:24.092Z,15.09
2022-07-30T22:15:56.337Z,15.13
2022-07-30T22:18:24.217Z,15.27
2022-07-30T22:20:53.462Z,15.60
2022-07-30T22:23:20.856Z,15.32
2022-07-30T22:25:48.066Z,15.36
2022-07-30T22:28:16.794Z,15.37
2022-07-30T22:30:43.794Z,15.29
2022-07-30T22:33:18.648Z,15.03
2022-07-30T22:35:49.762Z,15.17
2022-07-30T22:38:16.800Z,14.96
2022-07-30T22:40:46.020Z,14.97
2022-07-30T22:43:13.867Z,14.83
2022-07-30T22:45:48.412Z,14.82
2022-07-30T22:48:15.729Z,14.79
2022-07-30T22:50:42.312Z,14.56
2022-07-30T22:55:55.899Z,14.69
2022-07-30T22:58:26.405Z,14.63
2022-07-30T23:00:53.168Z,14.35
2022-07-30T23:03:19.578Z,14.49
2022-07-30T23:05:55.215Z,14.41
2022-07-30T23:08:29.385Z,14.27
2022-07-30T23:10:57.629Z,14.10
2022-07-30T23:12:30.688Z,14.68
2022-07-30T23:13:24.069Z,14.23
2022-07-30T23:15:50.629Z,14.23
2022-07-30T23:18:17.054Z,14.24
2022-07-30T23:20:43.460Z,14.28
2022-07-30T23:23:11.465Z,14.33
2022-07-30T23:25:38.602Z,14.10
2022-07-30T23:28:05.559Z,14.31
2022-07-30T23:30:33.885Z,14.33
2022-07-30T23:33:01.077Z,14.25
2022-07-30T23:35:27.549Z,14.37
2022-07-30T23:37:53.963Z,14.29
2022-07-30T23:40:20.363Z,14.24
2022-07-30T23:42:50.964Z,14.25
2022-07-30T23:45:18.399Z,14.19
2022-07-30T23:48:01.384Z,14.13
2022-07-30T23:50:33.467Z,14.15
2022-07-30T23:53:01.300Z,13.85
2022-07-30T23:55:28.674Z,13.95
2022-07-30T23:57:55.876Z,13.86
